Time;durP1;ratioP1;P1;durP2;ratioP2;P2;SDS_P1;SDS_P2;PMS_P1;PMS_P2;Temp;Humidity;BMP_temperature;BMP_pressure;BME280_temperature;BME280_humidity;BME280_pressure;Samples;Min_cycle;Max_cycle;Signal;HPM_P1;HPM_P2
2022/05/11 00:01:26;;;;;;;20.30;19.00;;;20.70;50.20;;;;;;5027068;28;20050;-79
2022/05/11 00:03:53;;;;;;;19.92;18.73;;;20.50;50.60;;;;;;5028146;28;20029;-79
2022/05/11 00:06:19;;;;;;;20.45;19.25;;;20.50;51.40;;;;;;5028514;28;20044;-79
2022/05/11 00:08:45;;;;;;;19.90;18.80;;;20.30;51.20;;;;;;5028222;28;20117;-79
2022/05/11 00:11:11;;;;;;;20.17;19.08;;;20.30;51.50;;;;;;5028375;28;20076;-79
2022/05/11 00:13:37;;;;;;;21.25;19.75;;;20.20;51.90;;;;;;5031134;28;20033;-79
2022/05/11 00:16:04;;;;;;;19.83;18.73;;;20.20;52.00;;;;;;5027024;28;20034;-79
2022/05/11 00:18:30;;;;;;;20.15;19.05;;;20.00;52.30;;;;;;5027789;28;20386;-79
2022/05/11 00:20:56;;;;;;;20.02;18.80;;;19.90;52.50;;;;;;5026079;28;20037;-78
2022/05/11 00:23:22;;;;;;;19.80;18.70;;;19.90;52.90;;;;;;5026589;28;20021;-79
2022/05/11 00:25:48;;;;;;;19.27;18.20;;;19.90;52.60;;;;;;5029606;28;20025;-79
2022/05/11 00:28:15;;;;;;;19.65;18.50;;;19.90;52.70;;;;;;5033824;28;20029;-79
2022/05/11 00:30:41;;;;;;;19.23;18.20;;;19.80;52.90;;;;;;5025013;28;20495;-79
2022/05/11 00:33:07;;;;;;;19.17;18.08;;;19.80;53.00;;;;;;5044271;28;20042;-79
2022/05/11 00:35:34;;;;;;;18.60;17.50;;;19.80;53.00;;;;;;5042559;28;20025;-78
2022/05/11 00:38:00;;;;;;;19.73;18.48;;;19.70;53.30;;;;;;5030315;28;20041;-78
2022/05/11 00:40:27;;;;;;;19.98;18.88;;;19.80;53.50;;;;;;5032471;28;20029;-78
2022/05/11 00:42:53;;;;;;;19.45;18.25;;;19.70;53.50;;;;;;5032731;28;20040;-79
2022/05/11 00:45:19;;;;;;;19.92;18.73;;;19.70;54.10;;;;;;5033996;28;20037;-79
2022/05/11 00:47:56;;;;;;;20.05;18.85;;;19.60;54.30;;;;;;5030967;28;20088;-79
2022/05/11 00:50:32;;;;;;;19.63;18.52;;;19.60;54.80;;;;;;5029818;28;20382;-79
2022/05/11 00:53:11;;;;;;;20.20;18.90;;;19.60;55.00;;;;;;5031939;28;20032;-79
2022/05/11 00:55:52;;;;;;;19.58;18.45;;;19.50;55.30;;;;;;5029639;28;20030;-79
2022/05/11 00:58:27;;;;;;;19.73;18.45;;;19.50;55.50;;;;;;5025699;28;20085;-79
2022/05/11 01:00:53;;;;;;;19.33;18.00;;;19.40;55.70;;;;;;5012140;28;20544;-79
2022/05/11 01:03:23;;;;;;;19.70;18.50;;;19.30;55.40;;;;;;5015393;28;20053;-79
2022/05/11 01:05:50;;;;;;;19.23;18.00;;;19.40;55.60;;;;;;5047054;28;20042;-78
2022/05/11 01:08:18;;;;;;;18.98;17.88;;;19.30;56.00;;;;;;5046491;28;20034;-79
2022/05/11 01:10:44;;;;;;;19.05;18.05;;;19.40;56.20;;;;;;5044212;28;20402;-78
2022/05/11 01:13:11;;;;;;;19.17;17.67;;;19.30;56.60;;;;;;5017381;28;20409;-79
2022/05/11 01:15:37;;;;;;;19.60;18.40;;;19.30;56.70;;;;;;5031932;28;20033;-78
2022/05/11 01:18:05;;;;;;;19.42;18.10;;;19.30;56.40;;;;;;5030179;28;20033;-79
2022/05/11 01:20:33;;;;;;;20.20;19.10;;;19.30;56.40;;;;;;5031087;28;20036;-79
2022/05/11 01:23:08;;;;;;;19.85;18.55;;;19.30;56.80;;;;;;5031468;28;20037;-78
2022/05/11 01:25:35;;;;;;;20.42;18.95;;;19.30;57.30;;;;;;5028099;28;20040;-79
2022/05/11 01:28:09;;;;;;;20.23;18.83;;;19.30;57.60;;;;;;5046979;28;20046;-79
2022/05/11 01:30:36;;;;;;;19.85;18.67;;;19.20;58.30;;;;;;5028039;28;20038;-78
2022/05/11 01:33:02;;;;;;;20.05;18.85;;;19.10;58.40;;;;;;5028083;28;20034;-78
2022/05/11 01:35:31;;;;;;;20.23;18.85;;;19.10;58.90;;;;;;5034266;28;20033;-78
2022/05/11 01:38:00;;;;;;;21.10;19.75;;;19.00;59.00;;;;;;5026907;28;20044;-78
2022/05/11 01:40:26;;;;;;;20.30;19.00;;;19.00;59.10;;;;;;5031066;28;20505;-78
2022/05/11 01:42:52;;;;;;;20.08;18.67;;;19.00;59.20;;;;;;5031405;28;20036;-78
2022/05/11 01:45:18;;;;;;;20.05;18.75;;;19.00;58.70;;;;;;5048763;28;20037;-78
2022/05/11 01:47:44;;;;;;;20.33;19.13;;;19.00;58.60;;;;;;5009806;28;20038;-78
2022/05/11 01:50:11;;;;;;;19.92;18.63;;;19.10;58.50;;;;;;5029995;28;20029;-78
2022/05/11 01:52:37;;;;;;;20.33;19.10;;;19.10;58.90;;;;;;5030819;28;20037;-78
2022/05/11 01:55:03;;;;;;;19.38;18.38;;;19.00;59.20;;;;;;5034299;28;20041;-78
2022/05/11 01:57:29;;;;;;;19.48;18.38;;;19.00;59.10;;;;;;5033123;28;20036;-78
2022/05/11 01:59:56;;;;;;;19.80;18.50;;;19.00;59.10;;;;;;5025449;28;20034;-78
2022/05/11 02:02:22;;;;;;;19.95;18.75;;;19.00;59.20;;;;;;5028594;28;20038;-78
2022/05/11 02:07:51;;;;;;;19.17;17.95;;;18.90;59.50;;;;;;5028411;28;20060;-79
2022/05/11 02:10:18;;;;;;;19.02;17.85;;;18.90;59.40;;;;;;5026235;28;20040;-78
2022/05/11 02:12:44;;;;;;;18.35;17.27;;;18.90;59.70;;;;;;5014268;28;20036;-79
2022/05/11 02:15:11;;;;;;;19.85;18.58;;;18.90;59.80;;;;;;5031648;28;20041;-79
2022/05/11 02:17:37;;;;;;;19.38;18.17;;;18.90;60.00;;;;;;5011850;28;20371;-78
2022/05/11 02:20:03;;;;;;;19.27;18.27;;;18.90;60.20;;;;;;5012407;28;20037;-79
2022/05/11 02:22:29;;;;;;;18.80;17.75;;;18.90;60.10;;;;;;5028260;28;20048;-79
2022/05/11 02:24:55;;;;;;;19.35;18.25;;;18.80;60.40;;;;;;5044032;28;20486;-78
2022/05/11 02:27:21;;;;;;;18.55;17.55;;;18.80;60.80;;;;;;5029017;28;20117;-78
2022/05/11 02:29:48;;;;;;;18.95;17.85;;;18.70;60.50;;;;;;5032520;28;20037;-78
2022/05/11 02:32:14;;;;;;;19.70;18.38;;;18.70;61.00;;;;;;5031094;28;20030;-78
2022/05/11 02:37:24;;;;;;;18.08;17.00;;;18.60;60.80;;;;;;5029448;28;20409;-78
2022/05/11 02:39:50;;;;;;;18.65;17.55;;;18.60;61.60;;;;;;5026627;28;20029;-78
2022/05/11 02:42:18;;;;;;;18.33;17.33;;;18.60;61.00;;;;;;5031487;28;20037;-78
2022/05/11 02:44:45;;;;;;;18.52;17.33;;;18.60;61.50;;;;;;5030021;28;20402;-78
2022/05/11 02:47:12;;;;;;;18.30;17.27;;;18.50;61.40;;;;;;5029062;28;20033;-78
2022/05/11 02:49:38;;;;;;;18.58;17.40;;;18.50;61.80;;;;;;5028243;28;20037;-78
2022/05/11 02:52:04;;;;;;;17.98;16.77;;;18.40;62.10;;;;;;5046187;28;20834;-78
2022/05/11 02:54:30;;;;;;;18.25;17.10;;;18.40;62.20;;;;;;5042510;28;20053;-78
2022/05/11 02:56:56;;;;;;;17.27;16.27;;;18.40;62.00;;;;;;5029297;28;20034;-78
2022/05/11 02:59:22;;;;;;;17.27;16.27;;;18.40;62.30;;;;;;5029476;28;20592;-78
2022/05/11 03:01:49;;;;;;;17.05;15.95;;;18.40;62.40;;;;;;5026559;28;20508;-78
2022/05/11 03:04:16;;;;;;;17.50;16.40;;;18.30;62.40;;;;;;5012068;28;20481;-78
2022/05/11 03:06:42;;;;;;;17.35;16.35;;;18.30;62.40;;;;;;5032052;28;20087;-78
2022/05/11 03:09:08;;;;;;;16.75;15.85;;;18.30;62.70;;;;;;5044689;28;20034;-78
2022/05/11 03:11:34;;;;;;;16.48;15.27;;;18.30;62.50;;;;;;5029146;28;20041;-78
2022/05/11 03:14:00;;;;;;;17.20;15.93;;;18.30;62.50;;;;;;5028213;28;20026;-78
2022/05/11 03:16:26;;;;;;;16.38;15.48;;;18.30;62.80;;;;;;5030290;28;20044;-78
2022/05/11 03:18:52;;;;;;;16.40;15.48;;;18.20;62.80;;;;;;5030075;28;20048;-78
2022/05/11 03:21:19;;;;;;;16.48;15.38;;;18.20;62.90;;;;;;5047736;28;20410;-78
2022/05/11 03:23:45;;;;;;;16.42;15.32;;;18.20;62.80;;;;;;5012195;28;20037;-78
2022/05/11 03:26:14;;;;;;;15.93;14.98;;;18.20;63.10;;;;;;5028823;28;20034;-78
2022/05/11 03:28:40;;;;;;;15.77;14.88;;;18.10;62.70;;;;;;5023343;28;20654;-78
2022/05/11 03:31:06;;;;;;;15.63;14.55;;;18.10;63.00;;;;;;5027687;28;20030;-78
2022/05/11 03:36:17;;;;;;;15.00;14.15;;;18.00;63.20;;;;;;5036207;28;20040;-78
2022/05/11 03:38:43;;;;;;;15.75;14.75;;;18.00;63.40;;;;;;5028232;28;20044;-78
2022/05/11 03:41:09;;;;;;;15.07;14.18;;;18.00;63.40;;;;;;5017402;28;20042;-78
2022/05/11 03:43:35;;;;;;;15.80;14.60;;;18.00;64.00;;;;;;5027487;28;20033;-78
2022/05/11 03:46:01;;;;;;;15.82;14.80;;;17.90;63.60;;;;;;5027545;28;22583;-78
2022/05/11 03:48:27;;;;;;;15.35;14.35;;;17.90;64.30;;;;;;5028911;28;20036;-78
2022/05/11 03:50:54;;;;;;;15.75;14.70;;;17.80;63.60;;;;;;5027194;28;20049;-78
2022/05/11 03:53:20;;;;;;;15.77;14.57;;;17.80;64.40;;;;;;5038621;28;20030;-77
2022/05/11 03:55:46;;;;;;;15.38;14.35;;;17.70;64.50;;;;;;5027740;28;20036;-78
2022/05/11 03:58:14;;;;;;;14.82;13.93;;;17.70;64.40;;;;;;5026849;28;20034;-77
2022/05/11 04:00:40;;;;;;;14.95;13.95;;;17.70;64.50;;;;;;5028671;28;20049;-77
2022/05/11 04:03:06;;;;;;;15.35;14.25;;;17.70;64.50;;;;;;5027038;28;20021;-81
2022/05/11 04:05:33;;;;;;;15.40;14.45;;;17.70;64.40;;;;;;5043845;28;20040;-78
2022/05/11 04:07:59;;;;;;;15.70;14.70;;;17.70;64.40;;;;;;5028313;28;20025;-78
2022/05/11 04:10:25;;;;;;;15.02;14.13;;;17.70;64.50;;;;;;5028662;28;20371;-78
2022/05/11 04:12:51;;;;;;;14.60;13.68;;;17.60;64.30;;;;;;5029813;28;20013;-78
2022/05/11 04:15:18;;;;;;;14.93;13.73;;;17.60;64.30;;;;;;5029036;28;20040;-79
2022/05/11 04:17:44;;;;;;;15.00;14.10;;;17.50;64.60;;;;;;5016894;28;20042;-78
2022/05/11 04:20:15;;;;;;;14.75;13.55;;;17.50;64.90;;;;;;5016174;28;20042;-78
2022/05/11 04:22:41;;;;;;;14.98;13.98;;;17.50;64.40;;;;;;5013079;28;20052;-78
2022/05/11 04:25:09;;;;;;;14.60;13.70;;;17.50;65.00;;;;;;5022024;28;20029;-78
2022/05/11 04:27:35;;;;;;;14.80;13.70;;;17.40;64.60;;;;;;5013895;28;20056;-78
2022/05/11 04:30:03;;;;;;;14.80;13.60;;;17.40;64.80;;;;;;5027698;28;20042;-79
2022/05/11 04:32:29;;;;;;;14.52;13.40;;;17.30;65.00;;;;;;5026076;28;20044;-79
2022/05/11 04:34:55;;;;;;;14.70;13.52;;;17.30;65.10;;;;;;5029583;28;20033;-78
2022/05/11 04:37:21;;;;;;;14.63;13.73;;;17.20;65.00;;;;;;5029501;28;20029;-78
2022/05/11 04:39:47;;;;;;;15.15;14.15;;;17.20;65.10;;;;;;5012372;28;20037;-78
2022/05/11 04:42:14;;;;;;;14.75;13.80;;;17.30;65.30;;;;;;5043260;28;20121;-78
2022/05/11 04:44:40;;;;;;;14.80;13.82;;;17.30;65.40;;;;;;5028067;28;20036;-78
2022/05/11 04:47:08;;;;;;;15.52;14.23;;;17.20;65.20;;;;;;5007801;28;20034;-78
2022/05/11 04:49:34;;;;;;;15.15;14.02;;;17.20;65.30;;;;;;5015094;28;20037;-78
2022/05/11 04:52:08;;;;;;;14.32;13.52;;;17.20;66.20;;;;;;5024346;28;20052;-78
2022/05/11 04:54:38;;;;;;;15.32;14.32;;;17.20;65.40;;;;;;5026853;28;20038;-79
2022/05/11 04:57:05;;;;;;;14.63;13.57;;;17.20;65.50;;;;;;5026110;28;20382;-79
2022/05/11 04:59:32;;;;;;;15.57;14.50;;;17.20;65.50;;;;;;5027022;28;20036;-78
2022/05/11 05:02:03;;;;;;;15.07;14.05;;;17.20;66.10;;;;;;5027621;28;20052;-78
2022/05/11 05:04:29;;;;;;;15.13;13.88;;;17.20;65.90;;;;;;5027406;28;20478;-78
2022/05/11 05:06:55;;;;;;;15.63;14.52;;;17.30;65.70;;;;;;5028244;28;20042;-78
2022/05/11 05:09:22;;;;;;;14.32;13.30;;;17.30;65.60;;;;;;5031616;28;20033;-78
2022/05/11 05:11:49;;;;;;;15.07;14.18;;;17.20;65.60;;;;;;5007459;28;20046;-78
2022/05/11 05:14:15;;;;;;;14.02;13.02;;;17.20;65.80;;;;;;5029184;28;20026;-78
2022/05/11 05:16:41;;;;;;;15.32;14.32;;;17.20;65.90;;;;;;5047531;28;20056;-78
2022/05/11 05:19:07;;;;;;;15.00;13.90;;;17.20;66.00;;;;;;5031703;28;20022;-78
2022/05/11 05:21:33;;;;;;;15.07;14.05;;;17.20;66.30;;;;;;5031418;28;20049;-78
2022/05/11 05:24:00;;;;;;;15.07;14.05;;;17.30;66.70;;;;;;5015313;28;20048;-78
2022/05/11 05:26:26;;;;;;;15.93;14.65;;;17.40;67.10;;;;;;5032389;28;20030;-79
2022/05/11 05:31:37;;;;;;;16.48;15.57;;;17.50;67.80;;;;;;5033244;28;20040;-78
2022/05/11 05:34:04;;;;;;;18.73;17.52;;;17.70;67.60;;;;;;5015628;28;20037;-78
2022/05/11 05:36:32;;;;;;;18.90;17.80;;;17.90;67.40;;;;;;5032428;28;20081;-79
2022/05/11 05:38:58;;;;;;;358.92;39.30;;;18.00;66.80;;;;;;5012096;28;20315;-79
2022/05/11 05:41:25;;;;;;;19.98;18.77;;;18.10;67.00;;;;;;4996771;28;20045;-79
2022/05/11 05:43:52;;;;;;;20.90;19.80;;;18.30;66.60;;;;;;5025197;28;20030;-79
2022/05/11 05:46:18;;;;;;;21.17;19.77;;;18.40;65.90;;;;;;5046237;28;20044;-79
2022/05/11 05:48:44;;;;;;;21.83;20.52;;;18.60;65.00;;;;;;5014978;28;20041;-77
2022/05/11 05:51:11;;;;;;;22.70;21.33;;;18.70;65.10;;;;;;5028096;28;20037;-74
2022/05/11 05:53:39;;;;;;;21.77;20.48;;;18.80;64.60;;;;;;5029687;28;20028;-75
2022/05/11 05:56:05;;;;;;;21.88;20.63;;;19.00;63.90;;;;;;5029334;28;20386;-75
2022/05/11 05:58:31;;;;;;;22.77;21.35;;;19.10;63.40;;;;;;5030833;28;20390;-75
2022/05/11 06:00:57;;;;;;;22.30;20.90;;;19.10;63.20;;;;;;5030411;28;20038;-75
2022/05/11 06:03:25;;;;;;;23.42;21.92;;;19.20;63.30;;;;;;5031836;28;20056;-74
2022/05/11 06:05:52;;;;;;;23.90;22.42;;;19.30;62.70;;;;;;5029865;28;20394;-74
2022/05/11 06:08:18;;;;;;;23.40;22.00;;;19.50;62.30;;;;;;5046591;28;20037;-74
2022/05/11 06:10:44;;;;;;;23.73;22.42;;;19.60;61.70;;;;;;5027122;28;20022;-74
2022/05/11 06:13:12;;;;;;;24.80;22.98;;;19.70;61.70;;;;;;5030047;28;20041;-75
2022/05/11 06:15:39;;;;;;;25.35;23.67;;;19.80;61.30;;;;;;5024069;28;20045;-74
2022/05/11 06:18:07;;;;;;;24.25;22.75;;;20.00;60.80;;;;;;5060547;28;20042;-74
2022/05/11 06:20:33;;;;;;;24.95;23.55;;;20.10;60.40;;;;;;5046708;28;20030;-74
2022/05/11 06:22:59;;;;;;;24.73;23.02;;;20.20;60.30;;;;;;5024768;28;20034;-75
2022/05/11 06:25:26;;;;;;;26.25;24.45;;;20.30;59.90;;;;;;5027822;28;20025;-74
2022/05/11 06:27:52;;;;;;;25.58;24.13;;;20.40;59.80;;;;;;5031234;28;20029;-74
2022/05/11 06:30:18;;;;;;;25.35;23.95;;;20.40;59.20;;;;;;5046334;28;20041;-74
2022/05/11 06:32:44;;;;;;;26.02;24.33;;;20.50;59.40;;;;;;5027900;28;20408;-74
2022/05/11 06:35:10;;;;;;;27.23;25.42;;;20.60;59.30;;;;;;5027286;28;20038;-75
2022/05/11 06:37:39;;;;;;;27.00;25.38;;;20.70;59.20;;;;;;5028607;28;20025;-74
2022/05/11 06:40:06;;;;;;;27.88;26.20;;;20.80;58.80;;;;;;5028616;28;20378;-75
2022/05/11 06:42:32;;;;;;;28.27;26.67;;;21.00;58.50;;;;;;5032198;28;20046;-75
2022/05/11 06:44:59;;;;;;;28.25;26.02;;;21.10;57.90;;;;;;5029962;28;20037;-74
2022/05/11 06:47:25;;;;;;;27.65;26.05;;;21.20;57.70;;;;;;5026707;28;20033;-74
2022/05/11 06:49:51;;;;;;;28.48;26.77;;;21.20;58.10;;;;;;5018320;28;20389;-74
2022/05/11 06:52:17;;;;;;;28.13;26.42;;;21.20;57.80;;;;;;5035460;28;20049;-74
2022/05/11 07:00:13;;;;;;;26.95;25.17;;;21.60;57.00;;;;;;5059000;28;20112;-75
2022/05/11 07:02:39;;;;;;;26.73;25.33;;;21.60;56.80;;;;;;5028334;28;20052;-74
2022/05/11 07:05:06;;;;;;;27.02;25.50;;;21.70;56.70;;;;;;5029842;28;20033;-74
2022/05/11 07:07:33;;;;;;;26.77;25.38;;;21.80;56.50;;;;;;5030130;28;20030;-75
2022/05/11 07:09:59;;;;;;;26.55;25.15;;;21.90;56.40;;;;;;5029009;28;20025;-75
2022/05/11 07:12:32;;;;;;;26.08;24.67;;;22.10;56.10;;;;;;5028769;28;20386;-75
2022/05/11 07:14:59;;;;;;;26.20;24.50;;;22.10;56.00;;;;;;5022067;28;20471;-74
2022/05/11 07:17:30;;;;;;;25.73;24.42;;;22.20;55.40;;;;;;5031359;28;20041;-75
2022/05/11 07:19:58;;;;;;;26.13;24.63;;;22.40;55.50;;;;;;5027040;28;20466;-76
2022/05/11 07:22:25;;;;;;;25.73;24.33;;;22.40;55.30;;;;;;5023366;28;20040;-77
2022/05/11 07:24:51;;;;;;;25.63;24.13;;;22.50;54.70;;;;;;5033083;28;20029;-78
2022/05/11 07:27:17;;;;;;;25.23;23.80;;;22.50;54.70;;;;;;5029877;28;20036;-78
2022/05/11 07:29:43;;;;;;;26.05;24.75;;;22.40;54.70;;;;;;5017229;28;20041;-77
2022/05/11 07:32:10;;;;;;;26.20;24.83;;;22.40;55.30;;;;;;5026510;28;20026;-81
2022/05/11 07:34:37;;;;;;;26.05;24.55;;;22.40;55.10;;;;;;5012543;28;20025;-80
2022/05/11 07:37:03;;;;;;;1999.90;999.90;;;22.60;55.70;;;;;;5029504;28;20498;-79
2022/05/11 07:39:30;;;;;;;26.48;25.08;;;22.60;55.00;;;;;;5040047;28;20082;-80
2022/05/11 07:41:56;;;;;;;25.40;24.10;;;22.60;54.60;;;;;;5026049;28;20044;-78
2022/05/11 07:44:22;;;;;;;26.70;25.25;;;22.70;54.50;;;;;;5028774;28;20041;-79
2022/05/11 07:46:48;;;;;;;27.92;26.42;;;22.70;54.50;;;;;;5026420;28;20033;-79
2022/05/11 07:49:16;;;;;;;27.40;26.00;;;22.70;54.50;;;;;;5028799;28;20036;-78
2022/05/11 07:51:43;;;;;;;27.38;25.92;;;22.80;55.20;;;;;;5029598;28;20053;-79
2022/05/11 07:54:14;;;;;;;27.00;25.65;;;22.70;54.70;;;;;;5040795;28;20053;-79
2022/05/11 08:02:09;;;;;;;28.40;26.88;;;22.50;55.40;;;;;;5023109;28;20056;-79
2022/05/11 08:04:36;;;;;;;25.92;24.52;;;22.50;55.30;;;;;;5026203;28;20017;-79
2022/05/11 08:07:03;;;;;;;27.75;26.15;;;22.50;55.10;;;;;;5012420;28;20053;-79
2022/05/11 08:09:29;;;;;;;27.17;25.67;;;22.40;55.30;;;;;;5029667;28;20021;-79
2022/05/11 08:11:56;;;;;;;26.88;25.45;;;22.40;55.70;;;;;;5029958;28;20494;-79
2022/05/11 08:14:23;;;;;;;27.15;25.75;;;22.30;55.60;;;;;;5031383;28;20028;-78
2022/05/11 08:16:52;;;;;;;25.48;24.17;;;22.10;56.30;;;;;;5025829;28;20040;-79
2022/05/11 08:19:19;;;;;;;25.33;23.98;;;22.00;56.30;;;;;;5032041;28;20022;-78
2022/05/11 08:21:47;;;;;;;25.42;24.13;;;21.90;56.50;;;;;;5033858;28;20038;-78
2022/05/11 08:24:13;;;;;;;25.23;23.92;;;21.90;56.60;;;;;;5012941;28;20395;-78
2022/05/11 08:26:40;;;;;;;24.98;23.58;;;21.80;56.80;;;;;;5030217;28;20463;-79
2022/05/11 08:29:07;;;;;;;24.25;22.85;;;21.60;57.30;;;;;;5013627;28;20033;-78
2022/05/11 08:34:18;;;;;;;24.13;22.33;;;21.30;57.90;;;;;;5033660;28;20033;-79
2022/05/11 08:36:45;;;;;;;23.92;22.55;;;21.20;58.40;;;;;;5046731;28;20037;-79
2022/05/11 08:39:11;;;;;;;24.15;22.85;;;21.10;58.70;;;;;;5030469;28;20040;-78
2022/05/11 08:41:51;;;;;;;24.17;22.88;;;21.00;58.70;;;;;;5029695;28;20037;-78
2022/05/11 08:44:33;;;;;;;24.75;23.45;;;20.90;59.20;;;;;;5029833;28;20028;-78
2022/05/11 08:47:15;;;;;;;23.08;21.77;;;20.80;59.10;;;;;;5032247;28;20036;-79
2022/05/11 08:49:54;;;;;;;23.55;22.25;;;20.90;58.50;;;;;;5033723;28;20037;-78
2022/05/11 08:52:34;;;;;;;23.48;22.10;;;21.00;58.50;;;;;;5033469;28;20512;-78
2022/05/11 08:55:41;;;;;;;22.02;20.67;;;21.00;58.30;;;;;;5033471;28;20486;-78
2022/05/11 08:58:32;;;;;;;22.48;21.38;;;21.00;57.80;;;;;;5032970;28;20144;-78
2022/05/11 09:00:58;;;;;;;23.90;22.67;;;21.00;58.20;;;;;;5018419;28;20029;-78
2022/05/11 09:03:41;;;;;;;23.23;22.02;;;21.20;58.40;;;;;;5016897;28;20531;-78
2022/05/11 09:06:18;;;;;;;24.25;22.95;;;21.50;57.30;;;;;;5033669;28;20040;-79
2022/05/11 09:08:44;;;;;;;23.23;21.90;;;21.80;57.50;;;;;;5033511;28;20478;-78
2022/05/11 09:11:12;;;;;;;22.98;21.77;;;22.10;55.60;;;;;;5033356;28;20474;-78
2022/05/11 09:13:39;;;;;;;22.55;21.45;;;22.20;54.80;;;;;;5033963;28;20041;-79
2022/05/11 09:16:06;;;;;;;23.85;22.60;;;22.30;54.20;;;;;;5016349;28;20029;-79
2022/05/11 09:18:39;;;;;;;22.85;21.73;;;22.30;53.90;;;;;;5045935;28;20060;-79
2022/05/11 09:21:32;;;;;;;23.48;22.23;;;22.40;53.90;;;;;;5033451;28;20037;-79
2022/05/11 09:24:04;;;;;;;23.05;21.85;;;22.50;53.30;;;;;;5031258;28;20052;-78
2022/05/11 09:26:36;;;;;;;1999.90;999.90;;;22.60;53.10;;;;;;5032607;28;20394;-79
2022/05/11 09:29:33;;;;;;;1999.90;999.90;;;22.80;54.40;;;;;;5027518;28;20021;-76
2022/05/11 09:32:21;;;;;;;1999.90;999.90;;;23.10;53.30;;;;;;5016899;28;20033;-77
2022/05/11 09:34:47;;;;;;;1999.90;999.90;;;23.30;52.60;;;;;;5031683;28;20474;-76
2022/05/11 09:37:27;;;;;;;1999.90;999.90;;;23.40;52.80;;;;;;5024367;28;20026;-76
2022/05/11 09:39:55;;;;;;;1999.90;999.90;;;23.60;52.10;;;;;;5010972;28;20026;-77
2022/05/11 09:42:29;;;;;;;1999.90;999.90;;;23.80;51.80;;;;;;4994523;28;20476;-77
2022/05/11 09:44:55;;;;;;;1999.90;999.90;;;23.80;50.80;;;;;;5009197;28;20037;-77
2022/05/11 09:47:23;;;;;;;1999.90;999.90;;;23.80;51.50;;;;;;5006438;28;20041;-76
2022/05/11 09:49:49;;;;;;;1999.90;999.90;;;23.90;50.30;;;;;;5008726;28;20053;-77
2022/05/11 09:52:27;;;;;;;1999.90;999.90;;;24.00;50.20;;;;;;5011135;28;20042;-77
2022/05/11 09:54:53;;;;;;;1999.90;999.90;;;24.20;49.90;;;;;;4993746;28;20025;-78
2022/05/11 09:57:23;;;;;;;1999.90;999.90;;;24.40;49.70;;;;;;5007805;28;20472;-77
2022/05/11 09:59:51;;;;;;;1999.90;999.90;;;24.50;49.80;;;;;;4997759;28;20041;-78
2022/05/11 10:02:30;;;;;;;1999.90;999.90;;;24.70;49.10;;;;;;5003241;28;20048;-78
2022/05/11 10:05:17;;;;;;;1999.90;999.90;;;24.80;49.00;;;;;;5010943;28;20506;-77
2022/05/11 10:08:04;;;;;;;1999.90;999.90;;;24.80;48.80;;;;;;5009393;28;20038;-76
2022/05/11 10:10:36;;;;;;;1999.90;999.90;;;24.90;50.10;;;;;;5008933;28;20026;-76
2022/05/11 10:13:28;;;;;;;1999.90;999.90;;;25.20;48.70;;;;;;4996248;28;20034;-76
2022/05/11 10:21:50;;;;;;;1999.90;999.90;;;25.40;47.20;;;;;;5019200;28;20033;-75
2022/05/11 10:24:25;;;;;;;1999.90;999.90;;;25.50;47.30;;;;;;4997691;28;20633;-76
2022/05/11 10:27:15;;;;;;;1999.90;999.90;;;25.60;47.70;;;;;;5009844;28;20037;-77
2022/05/11 10:29:57;;;;;;;1999.90;999.90;;;25.70;47.50;;;;;;4996606;28;20029;-77
2022/05/11 10:32:29;;;;;;;1999.90;999.90;;;25.90;47.30;;;;;;5007330;28;20029;-79
2022/05/11 10:35:17;;;;;;;1999.90;999.90;;;26.10;46.60;;;;;;5001707;28;20022;-81
2022/05/11 10:38:01;;;;;;;1999.90;999.90;;;26.30;46.10;;;;;;4999750;28;20033;-78
2022/05/11 10:40:27;;;;;;;1999.90;999.90;;;26.40;46.70;;;;;;5007479;28;20053;-78
2022/05/11 10:43:12;;;;;;;1999.90;999.90;;;26.50;46.30;;;;;;5010911;28;20372;-79
2022/05/11 10:45:47;;;;;;;1999.90;999.90;;;26.60;45.30;;;;;;5007299;28;20495;-79
2022/05/11 10:48:35;;;;;;;1999.90;999.90;;;26.60;45.20;;;;;;5005867;28;20069;-78
2022/05/11 10:51:34;;;;;;;1999.90;999.90;;;26.70;45.40;;;;;;5003087;28;20154;-79
2022/05/11 10:54:15;;;;;;;1999.90;999.90;;;26.80;45.50;;;;;;4998385;28;20037;-79
2022/05/11 10:57:00;;;;;;;1999.90;999.90;;;26.90;45.40;;;;;;5005687;28;20394;-79
2022/05/11 10:59:48;;;;;;;1999.90;999.90;;;27.00;44.90;;;;;;5007782;28;20033;-79
2022/05/11 11:02:23;;;;;;;1999.90;999.90;;;27.10;44.70;;;;;;5035793;28;20060;-80
2022/05/11 11:04:54;;;;;;;1999.90;999.90;;;27.20;44.40;;;;;;5010543;28;20034;-80
2022/05/11 11:07:40;;;;;;;1999.90;999.90;;;27.20;43.90;;;;;;4990700;28;20041;-79
2022/05/11 11:10:27;;;;;;;1999.90;999.90;;;27.10;43.70;;;;;;4993006;28;20578;-80
2022/05/11 11:13:08;;;;;;;1999.90;999.90;;;27.10;44.40;;;;;;5008104;28;20028;-80
2022/05/11 11:15:36;;;;;;;1999.90;999.90;;;27.30;43.90;;;;;;5008317;28;20038;-80
2022/05/11 11:18:03;;;;;;;1999.90;999.90;;;27.40;44.60;;;;;;4994207;28;20041;-80
2022/05/11 11:20:29;;;;;;;1999.90;999.90;;;27.50;43.70;;;;;;4993185;28;20222;-80
2022/05/11 11:23:14;;;;;;;1999.90;999.90;;;27.50;43.50;;;;;;5025431;28;20042;-80
2022/05/11 11:25:44;;;;;;;1999.90;999.90;;;27.50;44.10;;;;;;5004384;28;20117;-80
2022/05/11 11:28:14;;;;;;;1999.90;999.90;;;27.40;43.00;;;;;;5007306;28;22710;-80
2022/05/11 11:31:01;;;;;;;1999.90;999.90;;;27.50;43.50;;;;;;5011389;28;20045;-80
2022/05/11 11:33:28;;;;;;;1999.90;999.90;;;27.40;42.90;;;;;;5010793;28;20046;-79
2022/05/11 11:35:56;;;;;;;1999.90;999.90;;;27.10;43.10;;;;;;5006338;28;20044;-79
2022/05/11 11:38:38;;;;;;;1999.90;999.90;;;27.00;43.50;;;;;;5007633;28;20030;-79
2022/05/11 11:41:20;;;;;;;1999.90;999.90;;;26.90;44.10;;;;;;5008207;28;20033;-79
2022/05/11 11:43:53;;;;;;;1999.90;999.90;;;26.70;43.50;;;;;;5022724;28;20045;-79
2022/05/11 11:46:38;;;;;;;1999.90;999.90;;;26.70;45.20;;;;;;5002444;28;20493;-78
2022/05/11 11:49:09;;;;;;;1999.90;999.90;;;26.70;44.60;;;;;;5010874;28;20041;-79
2022/05/11 11:51:51;;;;;;;1999.90;999.90;;;26.60;44.50;;;;;;5023022;28;20042;-79
2022/05/11 11:54:39;;;;;;;1999.90;999.90;;;26.50;44.70;;;;;;5009805;28;20040;-79
2022/05/11 11:57:21;;;;;;;1999.90;999.90;;;26.40;44.70;;;;;;5008762;28;20037;-79
2022/05/11 12:00:00;;;;;;;1999.90;999.90;;;26.30;45.00;;;;;;5010104;28;20033;-79
2022/05/11 12:02:37;;;;;;;1999.90;999.90;;;26.40;45.60;;;;;;5005205;28;20034;-79
2022/05/11 12:05:28;;;;;;;1999.90;999.90;;;26.50;45.00;;;;;;4988861;28;20034;-79
2022/05/11 12:16:56;;;;;;;1999.90;999.90;;;26.80;44.60;;;;;;5007305;28;20033;-79
2022/05/11 12:19:24;;;;;;;1999.90;999.90;;;26.90;44.50;;;;;;4993924;28;20037;-79
2022/05/11 12:21:58;;;;;;;1999.90;999.90;;;27.00;43.80;;;;;;5011820;28;20042;-79
2022/05/11 12:24:30;;;;;;;1999.90;999.90;;;27.00;43.90;;;;;;5013554;28;20055;-79
2022/05/11 12:27:04;;;;;;;1999.90;999.90;;;27.00;44.00;;;;;;4992982;28;20041;-79
2022/05/11 12:32:32;;;;;;;1999.90;999.90;;;26.90;43.80;;;;;;5040232;28;20049;-79
2022/05/11 12:35:13;;;;;;;1999.90;999.90;;;27.00;44.70;;;;;;5010237;28;20046;-79
2022/05/11 12:37:39;;;;;;;1999.90;999.90;;;26.90;43.90;;;;;;5011902;28;20034;-79
2022/05/11 12:40:12;;;;;;;1999.90;999.90;;;26.80;44.70;;;;;;5029135;28;20372;-79
2022/05/11 12:42:46;;;;;;;1999.90;999.90;;;26.80;44.30;;;;;;5006301;28;20030;-79
2022/05/11 12:45:26;;;;;;;1999.90;999.90;;;26.90;44.40;;;;;;4993623;28;20023;-79
2022/05/11 12:47:56;;;;;;;1999.90;999.90;;;26.70;44.10;;;;;;4984518;28;20046;-79
2022/05/11 12:50:37;;;;;;;1999.90;999.90;;;26.40;44.90;;;;;;5005025;28;20030;-79
2022/05/11 12:53:15;;;;;;;1999.90;999.90;;;26.30;47.20;;;;;;4994876;28;20053;-79
2022/05/11 12:55:42;;;;;;;1999.90;999.90;;;26.40;46.20;;;;;;5010675;28;20118;-79
2022/05/11 12:58:08;;;;;;;1999.90;999.90;;;26.30;46.20;;;;;;4993897;28;20049;-79
2022/05/11 13:00:35;;;;;;;1999.90;999.90;;;26.20;45.70;;;;;;5026487;28;20257;-80
2022/05/11 13:03:21;;;;;;;1999.90;999.90;;;26.20;46.70;;;;;;5010913;28;20042;-80
2022/05/11 13:05:47;;;;;;;1999.90;999.90;;;26.50;46.00;;;;;;4976513;28;20053;-81
2022/05/11 13:08:16;;;;;;;1999.90;999.90;;;26.50;45.40;;;;;;5005005;28;20034;-80
2022/05/11 13:10:42;;;;;;;1999.90;999.90;;;26.60;45.80;;;;;;5010913;28;20376;-80
2022/05/11 13:13:15;;;;;;;1999.90;999.90;;;26.70;45.70;;;;;;5013466;28;20030;-83
2022/05/11 13:15:47;;;;;;;1999.90;999.90;;;26.80;45.40;;;;;;5025954;28;20030;-79